sensor_id;sensor_type;location;lat;lon;timestamp;P1;durP1;ratioP1;P2;durP2;ratioP2
24273;SDS011;12392;42.678;23.380;2023-11-19T00:02:08;3.08;;;2.00;;
24273;SDS011;12392;42.678;23.380;2023-11-19T00:04:37;3.22;;;2.30;;
24273;SDS011;12392;42.678;23.380;2023-11-19T00:07:06;2.33;;;2.13;;
24273;SDS011;12392;42.678;23.380;2023-11-19T00:09:35;2.85;;;2.47;;
24273;SDS011;12392;42.678;23.380;2023-11-19T00:12:05;2.50;;;2.10;;
24273;SDS011;12392;42.678;23.380;2023-11-19T00:14:32;3.28;;;2.20;;
24273;SDS011;12392;42.678;23.380;2023-11-19T00:16:58;2.22;;;2.03;;
24273;SDS011;12392;42.678;23.380;2023-11-19T00:19:24;2.20;;;2.00;;
24273;SDS011;12392;42.678;23.380;2023-11-19T00:21:49;2.65;;;1.90;;
24273;SDS011;12392;42.678;23.380;2023-11-19T00:24:15;4.05;;;2.00;;
24273;SDS011;12392;42.678;23.380;2023-11-19T00:26:42;1.90;;;1.80;;
24273;SDS011;12392;42.678;23.380;2023-11-19T00:29:08;2.90;;;2.15;;
24273;SDS011;12392;42.678;23.380;2023-11-19T00:31:34;3.33;;;1.90;;
24273;SDS011;12392;42.678;23.380;2023-11-19T00:34:00;3.63;;;2.10;;
24273;SDS011;12392;42.678;23.380;2023-11-19T00:36:27;4.32;;;2.35;;
24273;SDS011;12392;42.678;23.380;2023-11-19T00:38:53;2.85;;;2.28;;
24273;SDS011;12392;42.678;23.380;2023-11-19T00:41:19;2.30;;;2.10;;
24273;SDS011;12392;42.678;23.380;2023-11-19T00:43:45;2.60;;;2.40;;
24273;SDS011;12392;42.678;23.380;2023-11-19T00:46:11;2.38;;;2.17;;
24273;SDS011;12392;42.678;23.380;2023-11-19T00:48:37;3.67;;;2.30;;
24273;SDS011;12392;42.678;23.380;2023-11-19T00:51:02;6.45;;;2.65;;
24273;SDS011;12392;42.678;23.380;2023-11-19T00:53:29;3.95;;;2.60;;
24273;SDS011;12392;42.678;23.380;2023-11-19T00:55:55;2.78;;;2.58;;
24273;SDS011;12392;42.678;23.380;2023-11-19T00:58:22;2.92;;;2.58;;
24273;SDS011;12392;42.678;23.380;2023-11-19T01:00:47;3.17;;;2.45;;
24273;SDS011;12392;42.678;23.380;2023-11-19T01:03:13;2.45;;;2.25;;
24273;SDS011;12392;42.678;23.380;2023-11-19T01:05:40;3.63;;;2.00;;
24273;SDS011;12392;42.678;23.380;2023-11-19T01:08:06;2.67;;;2.30;;
24273;SDS011;12392;42.678;23.380;2023-11-19T01:10:33;2.88;;;2.47;;
24273;SDS011;12392;42.678;23.380;2023-11-19T01:12:59;3.22;;;2.75;;
24273;SDS011;12392;42.678;23.380;2023-11-19T01:15:25;2.50;;;2.30;;
24273;SDS011;12392;42.678;23.380;2023-11-19T01:17:51;6.05;;;2.50;;
24273;SDS011;12392;42.678;23.380;2023-11-19T01:20:17;3.22;;;2.28;;
24273;SDS011;12392;42.678;23.380;2023-11-19T01:22:42;4.13;;;2.58;;
24273;SDS011;12392;42.678;23.380;2023-11-19T01:25:08;2.58;;;2.38;;
24273;SDS011;12392;42.678;23.380;2023-11-19T01:27:34;3.28;;;2.45;;
24273;SDS011;12392;42.678;23.380;2023-11-19T01:30:03;2.83;;;2.13;;
24273;SDS011;12392;42.678;23.380;2023-11-19T01:32:30;2.75;;;2.22;;
24273;SDS011;12392;42.678;23.380;2023-11-19T01:34:56;3.22;;;2.63;;
24273;SDS011;12392;42.678;23.380;2023-11-19T01:37:22;3.45;;;2.20;;
24273;SDS011;12392;42.678;23.380;2023-11-19T01:39:48;2.55;;;2.35;;
24273;SDS011;12392;42.678;23.380;2023-11-19T01:42:14;2.47;;;2.28;;
24273;SDS011;12392;42.678;23.380;2023-11-19T01:44:40;3.67;;;2.30;;
24273;SDS011;12392;42.678;23.380;2023-11-19T01:47:06;2.65;;;2.42;;
24273;SDS011;12392;42.678;23.380;2023-11-19T01:49:32;2.20;;;2.00;;
24273;SDS011;12392;42.678;23.380;2023-11-19T01:51:58;2.75;;;2.40;;
24273;SDS011;12392;42.678;23.380;2023-11-19T01:54:24;2.10;;;1.95;;
24273;SDS011;12392;42.678;23.380;2023-11-19T01:56:50;2.40;;;2.20;;
24273;SDS011;12392;42.678;23.380;2023-11-19T01:59:16;2.15;;;1.98;;
24273;SDS011;12392;42.678;23.380;2023-11-19T02:01:42;4.22;;;2.30;;
24273;SDS011;12392;42.678;23.380;2023-11-19T02:04:08;2.10;;;1.83;;
24273;SDS011;12392;42.678;23.380;2023-11-19T02:06:34;2.67;;;1.92;;
24273;SDS011;12392;42.678;23.380;2023-11-19T02:09:01;1.95;;;1.80;;
24273;SDS011;12392;42.678;23.380;2023-11-19T02:11:27;4.50;;;2.03;;
24273;SDS011;12392;42.678;23.380;2023-11-19T02:13:56;2.35;;;2.15;;
24273;SDS011;12392;42.678;23.380;2023-11-19T02:16:22;2.10;;;1.90;;
24273;SDS011;12392;42.678;23.380;2023-11-19T02:18:48;2.47;;;2.20;;
24273;SDS011;12392;42.678;23.380;2023-11-19T02:21:13;2.35;;;2.15;;
24273;SDS011;12392;42.678;23.380;2023-11-19T02:23:40;2.80;;;2.20;;
24273;SDS011;12392;42.678;23.380;2023-11-19T02:28:43;2.45;;;2.25;;
24273;SDS011;12392;42.678;23.380;2023-11-19T02:31:09;2.53;;;2.33;;
24273;SDS011;12392;42.678;23.380;2023-11-19T02:33:36;2.00;;;1.90;;
24273;SDS011;12392;42.678;23.380;2023-11-19T02:36:03;2.25;;;2.08;;
24273;SDS011;12392;42.678;23.380;2023-11-19T02:38:29;2.17;;;1.98;;
24273;SDS011;12392;42.678;23.380;2023-11-19T02:40:56;2.58;;;2.17;;
24273;SDS011;12392;42.678;23.380;2023-11-19T02:43:22;4.60;;;2.05;;
24273;SDS011;12392;42.678;23.380;2023-11-19T02:45:48;2.60;;;2.40;;
24273;SDS011;12392;42.678;23.380;2023-11-19T02:48:13;4.78;;;2.08;;
24273;SDS011;12392;42.678;23.380;2023-11-19T02:50:41;2.30;;;2.10;;
24273;SDS011;12392;42.678;23.380;2023-11-19T02:53:07;2.75;;;2.33;;
24273;SDS011;12392;42.678;23.380;2023-11-19T02:55:33;4.03;;;2.42;;
24273;SDS011;12392;42.678;23.380;2023-11-19T02:58:03;2.95;;;2.28;;
24273;SDS011;12392;42.678;23.380;2023-11-19T03:00:34;3.65;;;2.55;;
24273;SDS011;12392;42.678;23.380;2023-11-19T03:03:03;5.05;;;2.70;;
24273;SDS011;12392;42.678;23.380;2023-11-19T03:05:47;2.20;;;2.00;;
24273;SDS011;12392;42.678;23.380;2023-11-19T03:08:13;2.05;;;1.88;;
24273;SDS011;12392;42.678;23.380;2023-11-19T03:10:42;3.28;;;2.60;;
24273;SDS011;12392;42.678;23.380;2023-11-19T03:13:11;3.55;;;2.25;;
24273;SDS011;12392;42.678;23.380;2023-11-19T03:15:39;3.90;;;2.50;;
24273;SDS011;12392;42.678;23.380;2023-11-19T03:18:05;2.67;;;2.25;;
24273;SDS011;12392;42.678;23.380;2023-11-19T03:20:30;3.35;;;2.72;;
24273;SDS011;12392;42.678;23.380;2023-11-19T03:22:57;2.45;;;2.20;;
24273;SDS011;12392;42.678;23.380;2023-11-19T03:25:26;2.47;;;2.28;;
24273;SDS011;12392;42.678;23.380;2023-11-19T03:27:58;2.15;;;1.95;;
24273;SDS011;12392;42.678;23.380;2023-11-19T03:30:24;2.25;;;2.03;;
24273;SDS011;12392;42.678;23.380;2023-11-19T03:32:50;2.95;;;2.50;;
24273;SDS011;12392;42.678;23.380;2023-11-19T03:35:15;4.35;;;2.50;;
24273;SDS011;12392;42.678;23.380;2023-11-19T03:37:41;2.38;;;2.17;;
24273;SDS011;12392;42.678;23.380;2023-11-19T03:40:08;2.65;;;2.45;;
24273;SDS011;12392;42.678;23.380;2023-11-19T03:42:35;3.40;;;2.65;;
24273;SDS011;12392;42.678;23.380;2023-11-19T03:45:01;3.13;;;2.50;;
24273;SDS011;12392;42.678;23.380;2023-11-19T03:47:29;2.60;;;2.40;;
24273;SDS011;12392;42.678;23.380;2023-11-19T03:49:54;2.28;;;2.05;;
24273;SDS011;12392;42.678;23.380;2023-11-19T03:52:20;2.60;;;2.40;;
24273;SDS011;12392;42.678;23.380;2023-11-19T03:54:46;2.45;;;2.25;;
24273;SDS011;12392;42.678;23.380;2023-11-19T03:57:12;2.60;;;2.38;;
24273;SDS011;12392;42.678;23.380;2023-11-19T03:59:38;3.08;;;2.38;;
24273;SDS011;12392;42.678;23.380;2023-11-19T04:02:04;2.72;;;2.47;;
24273;SDS011;12392;42.678;23.380;2023-11-19T04:04:31;3.58;;;2.47;;
24273;SDS011;12392;42.678;23.380;2023-11-19T04:06:57;3.10;;;2.75;;
24273;SDS011;12392;42.678;23.380;2023-11-19T04:09:23;3.15;;;2.38;;
24273;SDS011;12392;42.678;23.380;2023-11-19T04:11:49;3.15;;;2.35;;
24273;SDS011;12392;42.678;23.380;2023-11-19T04:14:14;3.00;;;2.70;;
24273;SDS011;12392;42.678;23.380;2023-11-19T04:16:43;3.08;;;2.40;;
24273;SDS011;12392;42.678;23.380;2023-11-19T04:19:09;2.25;;;2.05;;
24273;SDS011;12392;42.678;23.380;2023-11-19T04:21:34;2.95;;;2.67;;
24273;SDS011;12392;42.678;23.380;2023-11-19T04:24:00;3.78;;;2.45;;
24273;SDS011;12392;42.678;23.380;2023-11-19T04:26:26;3.30;;;2.85;;
24273;SDS011;12392;42.678;23.380;2023-11-19T04:28:52;2.58;;;2.38;;
24273;SDS011;12392;42.678;23.380;2023-11-19T04:31:17;3.38;;;2.70;;
24273;SDS011;12392;42.678;23.380;2023-11-19T04:33:43;3.13;;;2.80;;
24273;SDS011;12392;42.678;23.380;2023-11-19T04:36:09;3.10;;;2.60;;
24273;SDS011;12392;42.678;23.380;2023-11-19T04:38:35;3.10;;;2.80;;
24273;SDS011;12392;42.678;23.380;2023-11-19T04:41:03;3.45;;;2.55;;
24273;SDS011;12392;42.678;23.380;2023-11-19T04:43:30;3.60;;;2.88;;
24273;SDS011;12392;42.678;23.380;2023-11-19T04:45:56;3.50;;;2.58;;
24273;SDS011;12392;42.678;23.380;2023-11-19T04:48:22;4.43;;;2.80;;
24273;SDS011;12392;42.678;23.380;2023-11-19T04:50:48;3.60;;;2.92;;
24273;SDS011;12392;42.678;23.380;2023-11-19T04:53:16;2.92;;;2.63;;
24273;SDS011;12392;42.678;23.380;2023-11-19T04:55:42;3.40;;;2.88;;
24273;SDS011;12392;42.678;23.380;2023-11-19T04:58:08;56.03;;;3.75;;
24273;SDS011;12392;42.678;23.380;2023-11-19T05:00:34;4.53;;;3.15;;
24273;SDS011;12392;42.678;23.380;2023-11-19T05:03:00;5.40;;;3.03;;
24273;SDS011;12392;42.678;23.380;2023-11-19T05:05:25;3.38;;;2.72;;
24273;SDS011;12392;42.678;23.380;2023-11-19T05:07:52;3.20;;;2.65;;
24273;SDS011;12392;42.678;23.380;2023-11-19T05:10:17;3.30;;;2.83;;
24273;SDS011;12392;42.678;23.380;2023-11-19T05:12:43;2.83;;;2.63;;
24273;SDS011;12392;42.678;23.380;2023-11-19T05:15:09;3.75;;;2.80;;
24273;SDS011;12392;42.678;23.380;2023-11-19T05:17:37;4.45;;;3.00;;
24273;SDS011;12392;42.678;23.380;2023-11-19T05:20:02;4.38;;;2.45;;
24273;SDS011;12392;42.678;23.380;2023-11-19T05:22:28;3.53;;;3.10;;
24273;SDS011;12392;42.678;23.380;2023-11-19T05:24:54;3.30;;;3.00;;
24273;SDS011;12392;42.678;23.380;2023-11-19T05:27:21;3.22;;;2.92;;
24273;SDS011;12392;42.678;23.380;2023-11-19T05:29:48;2.75;;;2.47;;
24273;SDS011;12392;42.678;23.380;2023-11-19T05:32:14;3.03;;;2.65;;
24273;SDS011;12392;42.678;23.380;2023-11-19T05:34:40;3.10;;;2.65;;
24273;SDS011;12392;42.678;23.380;2023-11-19T05:37:05;8.13;;;4.10;;
24273;SDS011;12392;42.678;23.380;2023-11-19T05:39:31;5.13;;;3.50;;
24273;SDS011;12392;42.678;23.380;2023-11-19T05:41:57;3.55;;;3.25;;
24273;SDS011;12392;42.678;23.380;2023-11-19T05:44:22;3.13;;;2.83;;
24273;SDS011;12392;42.678;23.380;2023-11-19T05:46:48;3.92;;;2.70;;
24273;SDS011;12392;42.678;23.380;2023-11-19T05:49:14;3.75;;;2.80;;
24273;SDS011;12392;42.678;23.380;2023-11-19T05:51:40;6.25;;;3.25;;
24273;SDS011;12392;42.678;23.380;2023-11-19T05:54:06;3.30;;;3.00;;
24273;SDS011;12392;42.678;23.380;2023-11-19T05:56:33;4.63;;;2.60;;
24273;SDS011;12392;42.678;23.380;2023-11-19T05:58:59;3.25;;;2.95;;
24273;SDS011;12392;42.678;23.380;2023-11-19T06:01:32;3.20;;;2.40;;
24273;SDS011;12392;42.678;23.380;2023-11-19T06:03:59;4.25;;;2.88;;
24273;SDS011;12392;42.678;23.380;2023-11-19T06:06:26;2.95;;;2.65;;
24273;SDS011;12392;42.678;23.380;2023-11-19T06:08:52;3.15;;;2.72;;
24273;SDS011;12392;42.678;23.380;2023-11-19T06:11:17;3.33;;;2.83;;
24273;SDS011;12392;42.678;23.380;2023-11-19T06:13:45;5.00;;;2.35;;
24273;SDS011;12392;42.678;23.380;2023-11-19T06:16:11;3.42;;;2.92;;
24273;SDS011;12392;42.678;23.380;2023-11-19T06:18:37;3.72;;;3.00;;
24273;SDS011;12392;42.678;23.380;2023-11-19T06:21:03;3.88;;;3.17;;
24273;SDS011;12392;42.678;23.380;2023-11-19T06:23:28;7.30;;;3.40;;
24273;SDS011;12392;42.678;23.380;2023-11-19T06:25:54;39.92;;;3.55;;
24273;SDS011;12392;42.678;23.380;2023-11-19T06:28:20;3.08;;;2.78;;
24273;SDS011;12392;42.678;23.380;2023-11-19T06:30:45;3.47;;;2.63;;
24273;SDS011;12392;42.678;23.380;2023-11-19T06:33:14;4.53;;;3.17;;
24273;SDS011;12392;42.678;23.380;2023-11-19T06:35:40;2.55;;;2.35;;
24273;SDS011;12392;42.678;23.380;2023-11-19T06:38:05;3.45;;;2.58;;
24273;SDS011;12392;42.678;23.380;2023-11-19T06:40:32;5.82;;;2.72;;
24273;SDS011;12392;42.678;23.380;2023-11-19T06:42:58;3.53;;;3.00;;
24273;SDS011;12392;42.678;23.380;2023-11-19T06:45:24;3.70;;;3.15;;
24273;SDS011;12392;42.678;23.380;2023-11-19T06:47:50;4.60;;;3.35;;
24273;SDS011;12392;42.678;23.380;2023-11-19T06:50:16;4.28;;;3.53;;
24273;SDS011;12392;42.678;23.380;2023-11-19T06:52:41;4.25;;;3.38;;
24273;SDS011;12392;42.678;23.380;2023-11-19T06:55:07;3.20;;;2.90;;
24273;SDS011;12392;42.678;23.380;2023-11-19T06:57:33;6.45;;;3.10;;
24273;SDS011;12392;42.678;23.380;2023-11-19T06:59:59;4.25;;;3.60;;
24273;SDS011;12392;42.678;23.380;2023-11-19T07:02:25;4.60;;;3.45;;
24273;SDS011;12392;42.678;23.380;2023-11-19T07:04:51;10.23;;;3.63;;
24273;SDS011;12392;42.678;23.380;2023-11-19T07:07:16;7.10;;;3.08;;
24273;SDS011;12392;42.678;23.380;2023-11-19T07:09:42;6.30;;;3.47;;
24273;SDS011;12392;42.678;23.380;2023-11-19T07:12:08;6.38;;;2.72;;
24273;SDS011;12392;42.678;23.380;2023-11-19T07:14:34;3.47;;;3.17;;
24273;SDS011;12392;42.678;23.380;2023-11-19T07:16:59;4.32;;;3.28;;
24273;SDS011;12392;42.678;23.380;2023-11-19T07:19:25;4.82;;;3.00;;
24273;SDS011;12392;42.678;23.380;2023-11-19T07:21:51;3.97;;;3.00;;
24273;SDS011;12392;42.678;23.380;2023-11-19T07:24:19;4.18;;;3.50;;
24273;SDS011;12392;42.678;23.380;2023-11-19T07:26:46;3.80;;;3.40;;
24273;SDS011;12392;42.678;23.380;2023-11-19T07:29:13;4.18;;;3.70;;
24273;SDS011;12392;42.678;23.380;2023-11-19T07:31:40;4.47;;;3.90;;
24273;SDS011;12392;42.678;23.380;2023-11-19T07:34:05;4.03;;;3.72;;
24273;SDS011;12392;42.678;23.380;2023-11-19T07:36:31;4.63;;;3.75;;
24273;SDS011;12392;42.678;23.380;2023-11-19T07:38:58;3.38;;;3.08;;
24273;SDS011;12392;42.678;23.380;2023-11-19T07:41:24;4.80;;;3.33;;
24273;SDS011;12392;42.678;23.380;2023-11-19T07:43:50;3.70;;;3.40;;
24273;SDS011;12392;42.678;23.380;2023-11-19T07:46:17;5.72;;;3.20;;
24273;SDS011;12392;42.678;23.380;2023-11-19T07:48:44;4.88;;;3.70;;
24273;SDS011;12392;42.678;23.380;2023-11-19T07:51:12;3.42;;;3.10;;
24273;SDS011;12392;42.678;23.380;2023-11-19T07:53:38;3.38;;;3.08;;
24273;SDS011;12392;42.678;23.380;2023-11-19T07:56:04;5.43;;;3.25;;
24273;SDS011;12392;42.678;23.380;2023-11-19T07:58:30;3.60;;;3.30;;
24273;SDS011;12392;42.678;23.380;2023-11-19T08:00:56;3.60;;;3.30;;
24273;SDS011;12392;42.678;23.380;2023-11-19T08:03:22;3.60;;;3.30;;
24273;SDS011;12392;42.678;23.380;2023-11-19T08:05:48;4.25;;;3.78;;
24273;SDS011;12392;42.678;23.380;2023-11-19T08:08:14;4.45;;;3.65;;
24273;SDS011;12392;42.678;23.380;2023-11-19T08:10:40;6.65;;;3.70;;
24273;SDS011;12392;42.678;23.380;2023-11-19T08:13:06;4.90;;;3.78;;
24273;SDS011;12392;42.678;23.380;2023-11-19T08:15:32;3.63;;;3.20;;
24273;SDS011;12392;42.678;23.380;2023-11-19T08:17:58;5.03;;;3.47;;
24273;SDS011;12392;42.678;23.380;2023-11-19T08:20:23;4.25;;;3.42;;
24273;SDS011;12392;42.678;23.380;2023-11-19T08:22:49;3.92;;;3.40;;
24273;SDS011;12392;42.678;23.380;2023-11-19T08:25:15;5.40;;;3.60;;
24273;SDS011;12392;42.678;23.380;2023-11-19T08:27:41;5.65;;;3.40;;
24273;SDS011;12392;42.678;23.380;2023-11-19T08:30:07;4.40;;;3.85;;
24273;SDS011;12392;42.678;23.380;2023-11-19T08:32:33;4.47;;;3.78;;
24273;SDS011;12392;42.678;23.380;2023-11-19T08:34:59;3.30;;;3.00;;
24273;SDS011;12392;42.678;23.380;2023-11-19T08:37:25;3.60;;;3.13;;
24273;SDS011;12392;42.678;23.380;2023-11-19T08:39:50;4.03;;;3.20;;
24273;SDS011;12392;42.678;23.380;2023-11-19T08:42:16;4.97;;;3.38;;
24273;SDS011;12392;42.678;23.380;2023-11-19T08:44:42;3.83;;;3.45;;
24273;SDS011;12392;42.678;23.380;2023-11-19T08:47:09;5.28;;;3.88;;
24273;SDS011;12392;42.678;23.380;2023-11-19T08:49:35;3.55;;;3.08;;
24273;SDS011;12392;42.678;23.380;2023-11-19T08:52:01;4.15;;;3.70;;
24273;SDS011;12392;42.678;23.380;2023-11-19T08:54:27;6.75;;;4.18;;
24273;SDS011;12392;42.678;23.380;2023-11-19T08:56:52;4.07;;;3.67;;
24273;SDS011;12392;42.678;23.380;2023-11-19T08:59:18;4.25;;;3.58;;
24273;SDS011;12392;42.678;23.380;2023-11-19T09:01:44;3.97;;;3.60;;
24273;SDS011;12392;42.678;23.380;2023-11-19T09:04:10;4.10;;;3.53;;
24273;SDS011;12392;42.678;23.380;2023-11-19T09:06:35;4.22;;;2.80;;
24273;SDS011;12392;42.678;23.380;2023-11-19T09:09:01;4.20;;;3.15;;
24273;SDS011;12392;42.678;23.380;2023-11-19T09:11:31;3.65;;;3.35;;
24273;SDS011;12392;42.678;23.380;2023-11-19T09:13:58;4.50;;;3.42;;
24273;SDS011;12392;42.678;23.380;2023-11-19T09:16:24;5.88;;;3.47;;
24273;SDS011;12392;42.678;23.380;2023-11-19T09:18:50;4.40;;;3.03;;
24273;SDS011;12392;42.678;23.380;2023-11-19T09:21:16;3.85;;;3.45;;
24273;SDS011;12392;42.678;23.380;2023-11-19T09:23:41;4.70;;;3.20;;
24273;SDS011;12392;42.678;23.380;2023-11-19T09:26:10;3.78;;;3.45;;
24273;SDS011;12392;42.678;23.380;2023-11-19T09:28:36;4.53;;;2.97;;
24273;SDS011;12392;42.678;23.380;2023-11-19T09:31:01;3.70;;;3.40;;
24273;SDS011;12392;42.678;23.380;2023-11-19T09:33:30;5.25;;;3.53;;
24273;SDS011;12392;42.678;23.380;2023-11-19T09:35:55;4.45;;;3.28;;
24273;SDS011;12392;42.678;23.380;2023-11-19T09:38:22;5.45;;;3.40;;
24273;SDS011;12392;42.678;23.380;2023-11-19T09:40:47;5.28;;;4.05;;
24273;SDS011;12392;42.678;23.380;2023-11-19T09:43:13;3.42;;;3.13;;
24273;SDS011;12392;42.678;23.380;2023-11-19T09:45:49;3.45;;;3.15;;
24273;SDS011;12392;42.678;23.380;2023-11-19T09:48:19;3.03;;;2.72;;
24273;SDS011;12392;42.678;23.380;2023-11-19T09:50:48;3.40;;;3.10;;
24273;SDS011;12392;42.678;23.380;2023-11-19T09:53:14;3.45;;;3.15;;
24273;SDS011;12392;42.678;23.380;2023-11-19T09:55:45;3.05;;;2.72;;
24273;SDS011;12392;42.678;23.380;2023-11-19T09:58:11;3.53;;;3.00;;
24273;SDS011;12392;42.678;23.380;2023-11-19T10:00:37;3.45;;;3.10;;
24273;SDS011;12392;42.678;23.380;2023-11-19T10:03:03;3.00;;;2.65;;
24273;SDS011;12392;42.678;23.380;2023-11-19T10:05:30;4.30;;;2.78;;
24273;SDS011;12392;42.678;23.380;2023-11-19T10:07:56;7.30;;;2.85;;
24273;SDS011;12392;42.678;23.380;2023-11-19T10:10:21;2.70;;;2.47;;
24273;SDS011;12392;42.678;23.380;2023-11-19T10:12:50;2.90;;;2.60;;
24273;SDS011;12392;42.678;23.380;2023-11-19T10:15:23;4.38;;;2.65;;
24273;SDS011;12392;42.678;23.380;2023-11-19T10:17:50;3.90;;;3.03;;
24273;SDS011;12392;42.678;23.380;2023-11-19T10:20:16;3.47;;;3.17;;
24273;SDS011;12392;42.678;23.380;2023-11-19T10:22:42;4.03;;;3.63;;
24273;SDS011;12392;42.678;23.380;2023-11-19T10:25:26;4.25;;;3.85;;
24273;SDS011;12392;42.678;23.380;2023-11-19T10:27:53;7.57;;;3.15;;
24273;SDS011;12392;42.678;23.380;2023-11-19T10:30:20;6.22;;;4.65;;
24273;SDS011;12392;42.678;23.380;2023-11-19T10:33:06;7.75;;;4.60;;
24273;SDS011;12392;42.678;23.380;2023-11-19T10:35:33;3.67;;;3.30;;
24273;SDS011;12392;42.678;23.380;2023-11-19T10:38:00;3.72;;;3.40;;
24273;SDS011;12392;42.678;23.380;2023-11-19T10:40:49;4.63;;;3.42;;
24273;SDS011;12392;42.678;23.380;2023-11-19T10:43:16;3.42;;;3.10;;
24273;SDS011;12392;42.678;23.380;2023-11-19T10:45:42;3.28;;;2.90;;
24273;SDS011;12392;42.678;23.380;2023-11-19T10:48:08;3.63;;;3.10;;
24273;SDS011;12392;42.678;23.380;2023-11-19T10:50:38;3.17;;;2.88;;
24273;SDS011;12392;42.678;23.380;2023-11-19T10:53:05;5.18;;;2.60;;
24273;SDS011;12392;42.678;23.380;2023-11-19T10:55:34;3.03;;;2.42;;
24273;SDS011;12392;42.678;23.380;2023-11-19T10:58:01;3.10;;;2.72;;
24273;SDS011;12392;42.678;23.380;2023-11-19T11:03:19;3.10;;;2.80;;
24273;SDS011;12392;42.678;23.380;2023-11-19T11:05:49;3.30;;;2.60;;
24273;SDS011;12392;42.678;23.380;2023-11-19T11:08:16;2.92;;;2.35;;
24273;SDS011;12392;42.678;23.380;2023-11-19T11:10:43;6.78;;;2.83;;
24273;SDS011;12392;42.678;23.380;2023-11-19T11:13:10;3.20;;;2.90;;
24273;SDS011;12392;42.678;23.380;2023-11-19T11:15:37;3.45;;;3.15;;
24273;SDS011;12392;42.678;23.380;2023-11-19T11:18:03;3.90;;;2.47;;
24273;SDS011;12392;42.678;23.380;2023-11-19T11:20:31;3.78;;;2.60;;
24273;SDS011;12392;42.678;23.380;2023-11-19T11:36:31;2.75;;;2.53;;
24273;SDS011;12392;42.678;23.380;2023-11-19T11:39:07;3.30;;;3.00;;
24273;SDS011;12392;42.678;23.380;2023-11-19T11:41:33;2.50;;;2.30;;
24273;SDS011;12392;42.678;23.380;2023-11-19T11:43:58;4.28;;;2.50;;
24273;SDS011;12392;42.678;23.380;2023-11-19T11:49:01;2.63;;;2.40;;
24273;SDS011;12392;42.678;23.380;2023-11-19T11:57:01;4.88;;;3.63;;
24273;SDS011;12392;42.678;23.380;2023-11-19T11:59:49;4.45;;;3.42;;
24273;SDS011;12392;42.678;23.380;2023-11-19T12:02:17;6.65;;;4.68;;
24273;SDS011;12392;42.678;23.380;2023-11-19T12:04:51;4.13;;;3.38;;
24273;SDS011;12392;42.678;23.380;2023-11-19T12:07:18;6.40;;;3.60;;
24273;SDS011;12392;42.678;23.380;2023-11-19T12:09:47;4.65;;;3.47;;
24273;SDS011;12392;42.678;23.380;2023-11-19T12:20:02;5.05;;;4.07;;
24273;SDS011;12392;42.678;23.380;2023-11-19T12:22:31;5.15;;;3.97;;
24273;SDS011;12392;42.678;23.380;2023-11-19T12:27:29;3.55;;;2.72;;
24273;SDS011;12392;42.678;23.380;2023-11-19T12:29:55;11.38;;;8.30;;
24273;SDS011;12392;42.678;23.380;2023-11-19T12:32:22;3.25;;;2.80;;
24273;SDS011;12392;42.678;23.380;2023-11-19T12:34:47;4.95;;;3.55;;
24273;SDS011;12392;42.678;23.380;2023-11-19T12:37:13;4.13;;;3.10;;
24273;SDS011;12392;42.678;23.380;2023-11-19T12:39:40;4.55;;;3.72;;
24273;SDS011;12392;42.678;23.380;2023-11-19T12:42:06;5.07;;;3.80;;
24273;SDS011;12392;42.678;23.380;2023-11-19T12:44:31;4.53;;;3.58;;
24273;SDS011;12392;42.678;23.380;2023-11-19T12:47:06;5.25;;;3.90;;
24273;SDS011;12392;42.678;23.380;2023-11-19T12:49:35;4.60;;;3.65;;
24273;SDS011;12392;42.678;23.380;2023-11-19T12:52:01;5.82;;;3.70;;
24273;SDS011;12392;42.678;23.380;2023-11-19T12:54:36;10.98;;;7.78;;
24273;SDS011;12392;42.678;23.380;2023-11-19T12:57:02;3.15;;;2.60;;
24273;SDS011;12392;42.678;23.380;2023-11-19T12:59:30;5.35;;;3.78;;
24273;SDS011;12392;42.678;23.380;2023-11-19T13:04:21;4.20;;;3.42;;
24273;SDS011;12392;42.678;23.380;2023-11-19T13:06:47;3.03;;;2.72;;
24273;SDS011;12392;42.678;23.380;2023-11-19T13:11:49;4.00;;;2.53;;
24273;SDS011;12392;42.678;23.380;2023-11-19T13:14:15;3.30;;;3.00;;
24273;SDS011;12392;42.678;23.380;2023-11-19T13:16:41;2.75;;;2.55;;
24273;SDS011;12392;42.678;23.380;2023-11-19T13:19:07;3.85;;;2.85;;
24273;SDS011;12392;42.678;23.380;2023-11-19T13:21:36;7.20;;;5.60;;
24273;SDS011;12392;42.678;23.380;2023-11-19T13:24:03;11.45;;;6.65;;
24273;SDS011;12392;42.678;23.380;2023-11-19T13:26:28;4.53;;;3.20;;
24273;SDS011;12392;42.678;23.380;2023-11-19T13:28:54;7.07;;;5.32;;
24273;SDS011;12392;42.678;23.380;2023-11-19T13:31:20;3.97;;;3.05;;
24273;SDS011;12392;42.678;23.380;2023-11-19T13:33:46;4.20;;;3.67;;
24273;SDS011;12392;42.678;23.380;2023-11-19T13:36:11;4.90;;;4.15;;
24273;SDS011;12392;42.678;23.380;2023-11-19T13:38:37;12.32;;;7.95;;
24273;SDS011;12392;42.678;23.380;2023-11-19T13:41:03;10.98;;;7.00;;
24273;SDS011;12392;42.678;23.380;2023-11-19T13:43:29;7.38;;;5.10;;
24273;SDS011;12392;42.678;23.380;2023-11-19T13:45:55;6.00;;;3.80;;
24273;SDS011;12392;42.678;23.380;2023-11-19T13:48:22;6.20;;;4.10;;
24273;SDS011;12392;42.678;23.380;2023-11-19T13:50:48;4.85;;;3.72;;
24273;SDS011;12392;42.678;23.380;2023-11-19T13:53:13;3.90;;;3.22;;
24273;SDS011;12392;42.678;23.380;2023-11-19T13:55:39;5.25;;;4.18;;
24273;SDS011;12392;42.678;23.380;2023-11-19T13:58:05;4.28;;;3.72;;
24273;SDS011;12392;42.678;23.380;2023-11-19T14:00:30;6.25;;;3.97;;
24273;SDS011;12392;42.678;23.380;2023-11-19T14:02:56;4.47;;;3.70;;
24273;SDS011;12392;42.678;23.380;2023-11-19T14:05:22;5.40;;;4.30;;
24273;SDS011;12392;42.678;23.380;2023-11-19T14:07:48;4.10;;;3.50;;
24273;SDS011;12392;42.678;23.380;2023-11-19T14:10:15;5.47;;;3.55;;
24273;SDS011;12392;42.678;23.380;2023-11-19T14:12:41;4.47;;;3.50;;
24273;SDS011;12392;42.678;23.380;2023-11-19T14:15:07;5.30;;;3.42;;
24273;SDS011;12392;42.678;23.380;2023-11-19T14:17:42;5.68;;;4.25;;
24273;SDS011;12392;42.678;23.380;2023-11-19T14:20:08;4.57;;;3.58;;
24273;SDS011;12392;42.678;23.380;2023-11-19T14:22:41;6.53;;;3.90;;
24273;SDS011;12392;42.678;23.380;2023-11-19T14:25:08;4.65;;;3.40;;
24273;SDS011;12392;42.678;23.380;2023-11-19T14:27:38;4.50;;;3.28;;
24273;SDS011;12392;42.678;23.380;2023-11-19T14:30:07;4.97;;;3.55;;
24273;SDS011;12392;42.678;23.380;2023-11-19T14:32:36;5.95;;;3.35;;
24273;SDS011;12392;42.678;23.380;2023-11-19T14:35:02;3.53;;;3.22;;
24273;SDS011;12392;42.678;23.380;2023-11-19T14:37:29;4.07;;;3.30;;
24273;SDS011;12392;42.678;23.380;2023-11-19T14:39:56;5.15;;;4.10;;
24273;SDS011;12392;42.678;23.380;2023-11-19T14:42:22;9.27;;;3.92;;
24273;SDS011;12392;42.678;23.380;2023-11-19T14:44:50;4.95;;;3.72;;
24273;SDS011;12392;42.678;23.380;2023-11-19T14:47:18;7.18;;;3.92;;
24273;SDS011;12392;42.678;23.380;2023-11-19T14:49:44;7.22;;;5.68;;
24273;SDS011;12392;42.678;23.380;2023-11-19T14:52:10;8.68;;;5.10;;
24273;SDS011;12392;42.678;23.380;2023-11-19T14:54:36;7.50;;;4.15;;
24273;SDS011;12392;42.678;23.380;2023-11-19T14:57:03;6.63;;;4.22;;
24273;SDS011;12392;42.678;23.380;2023-11-19T14:59:29;7.82;;;4.53;;
24273;SDS011;12392;42.678;23.380;2023-11-19T15:01:55;7.55;;;4.78;;
24273;SDS011;12392;42.678;23.380;2023-11-19T15:04:21;6.93;;;4.70;;
24273;SDS011;12392;42.678;23.380;2023-11-19T15:06:46;10.65;;;4.38;;
24273;SDS011;12392;42.678;23.380;2023-11-19T15:09:12;6.40;;;4.70;;
24273;SDS011;12392;42.678;23.380;2023-11-19T15:11:43;7.85;;;4.80;;
24273;SDS011;12392;42.678;23.380;2023-11-19T15:14:11;11.07;;;4.43;;